Current Weather

Danbury Muni

Danbury, Connecticut (KDXR)

Report from: Tuesday, May 21, 2024 12:53 PM EDT
Current time: Tuesday, May 21, 2024 1:16 PM EDT

Nearby weather – Weather history – Daily summaries
Weather forecast

Temperature27.8°C (82.0°F)
Heat index28.9°C (84.1°F)
Dew point17.8°C (64.0°F)
Winds 5 kts (2.6 m/s, 5.8 mph) West (270°)
Visibility10 mi. (16.1 km)
Clouds Sky clear
Altimeter29.97 in.Hg (1015 mB)
Relative humidity55 %
Density altitude1,704 ft. (519 m)
Sea-level pressure101.5 kPa (1015 mB, 29.96 in.Hg)
Remarks Automated weather observing station with precipitation discriminator
Flight conditions Visual Meteorological Conditions
Raw dataKDXR 211653Z 27005KT 10SM CLR 28/18 A2997 RMK AO2 SLP147 T02780178
An error has occurred. This application may no longer respond until reloaded. Reload 🗙